createdAt,value
2018-03-31T00:00:03.462Z,4.70
2018-03-31T00:02:31.205Z,5.20
2018-03-31T00:04:59.733Z,9.60
2018-03-31T00:07:27.503Z,6.87
2018-03-31T00:09:55.247Z,6.20
2018-03-31T00:12:23.005Z,6.40
2018-03-31T00:14:51.428Z,11.07
2018-03-31T00:17:19.164Z,12.13
2018-03-31T00:19:47.224Z,9.53
2018-03-31T00:22:16.196Z,6.47
2018-03-31T00:24:43.975Z,5.57
2018-03-31T00:27:11.722Z,4.40
2018-03-31T00:29:40.315Z,6.83
2018-03-31T00:32:08.497Z,6.87
2018-03-31T00:34:36.281Z,4.03
2018-03-31T00:37:04.019Z,6.80
2018-03-31T00:39:31.809Z,5.83
2018-03-31T00:41:59.699Z,5.60
2018-03-31T00:44:27.504Z,4.27
2018-03-31T00:46:56.032Z,6.07
2018-03-31T00:49:23.794Z,7.60
2018-03-31T00:51:51.933Z,5.87
2018-03-31T00:54:20.475Z,8.10
2018-03-31T00:56:48.216Z,4.80
2018-03-31T00:59:15.974Z,19.93
2018-03-31T01:01:43.748Z,7.33
2018-03-31T01:04:11.506Z,6.73
2018-03-31T01:06:39.313Z,11.10
2018-03-31T01:09:07.075Z,7.30
2018-03-31T01:11:34.813Z,15.40
2018-03-31T01:14:03.061Z,8.77
2018-03-31T01:16:31.592Z,11.77
2018-03-31T01:18:59.804Z,9.07
2018-03-31T01:21:27.567Z,10.90
2018-03-31T01:23:55.365Z,7.20
2018-03-31T01:26:23.118Z,10.97
2018-03-31T01:28:51.645Z,6.83
2018-03-31T01:31:21.014Z,8.30
2018-03-31T01:33:49.432Z,7.17
2018-03-31T01:36:17.197Z,9.60
2018-03-31T01:38:44.990Z,7.97
2018-03-31T01:41:13.520Z,7.07
2018-03-31T01:43:41.306Z,11.70
2018-03-31T01:46:09.069Z,10.27
2018-03-31T01:48:36.834Z,8.90
2018-03-31T01:51:04.637Z,12.33
2018-03-31T01:53:34.011Z,10.53
2018-03-31T01:56:01.953Z,16.57
2018-03-31T01:58:29.709Z,11.57
2018-03-31T02:00:57.494Z,9.73
2018-03-31T02:03:25.237Z,9.90
2018-03-31T02:05:53.799Z,11.37
2018-03-31T02:08:21.554Z,14.03
2018-03-31T02:10:49.306Z,8.10
2018-03-31T02:13:17.050Z,11.20
2018-03-31T02:15:44.822Z,9.53
2018-03-31T02:18:12.643Z,15.30
2018-03-31T02:20:40.825Z,8.00
2018-03-31T02:23:08.586Z,7.30
2018-03-31T02:25:36.344Z,9.60
2018-03-31T02:28:04.175Z,11.93
2018-03-31T02:30:33.697Z,12.07
2018-03-31T02:33:01.514Z,16.50
2018-03-31T02:35:29.277Z,8.90
2018-03-31T02:37:57.056Z,14.83
2018-03-31T02:40:24.812Z,10.00
2018-03-31T02:42:52.570Z,13.60
2018-03-31T02:45:20.375Z,7.80
2018-03-31T02:47:48.151Z,12.10
2018-03-31T02:50:15.907Z,7.43
2018-03-31T02:52:43.670Z,14.73
2018-03-31T02:55:12.294Z,12.50
2018-03-31T02:57:40.059Z,8.40
2018-03-31T03:00:07.847Z,14.10
2018-03-31T03:02:35.636Z,10.53
2018-03-31T03:05:03.392Z,21.03
2018-03-31T03:07:31.175Z,31.60
2018-03-31T03:09:58.899Z,25.37
2018-03-31T03:12:27.435Z,22.27
2018-03-31T03:14:55.716Z,21.80
2018-03-31T03:17:23.221Z,19.60
2018-03-31T03:19:50.753Z,24.20
2018-03-31T03:22:18.276Z,9.40
2018-03-31T03:24:46.554Z,14.33
2018-03-31T03:27:14.076Z,23.37
2018-03-31T03:29:41.621Z,23.87
2018-03-31T03:32:09.134Z,26.00
2018-03-31T03:34:36.957Z,23.50
2018-03-31T03:37:04.458Z,22.00
2018-03-31T03:39:33.257Z,45.20
2018-03-31T03:42:00.778Z,13.57
2018-03-31T03:44:28.341Z,27.93
2018-03-31T03:46:56.644Z,37.57
2018-03-31T03:49:24.179Z,22.30
2018-03-31T03:51:51.703Z,64.67
2018-03-31T03:54:19.264Z,25.13
2018-03-31T03:56:46.749Z,26.67
2018-03-31T03:59:14.250Z,34.63
2018-03-31T04:01:41.757Z,70.20
2018-03-31T04:04:09.309Z,39.40
2018-03-31T04:06:36.823Z,21.40
2018-03-31T04:09:05.097Z,39.80
2018-03-31T04:11:33.393Z,18.97
2018-03-31T04:14:00.909Z,29.60
2018-03-31T04:16:28.446Z,19.83
2018-03-31T04:18:55.930Z,24.70
2018-03-31T04:21:23.457Z,33.73
2018-03-31T04:23:50.968Z,23.33
2018-03-31T04:26:19.513Z,26.73
2018-03-31T04:28:47.009Z,24.63
2018-03-31T04:31:15.302Z,19.83
2018-03-31T04:33:42.806Z,21.10
2018-03-31T04:36:10.323Z,21.90
2018-03-31T04:38:37.871Z,16.00
2018-03-31T04:41:06.160Z,19.53
2018-03-31T04:43:34.498Z,21.57
2018-03-31T04:46:02.002Z,26.90
2018-03-31T04:48:29.527Z,22.13
2018-03-31T04:50:57.037Z,17.83
2018-03-31T04:53:24.584Z,21.70
2018-03-31T04:55:52.115Z,19.40
2018-03-31T04:58:19.610Z,19.67
2018-03-31T05:00:47.177Z,29.23
2018-03-31T05:03:14.673Z,28.70
2018-03-31T05:05:42.224Z,21.30
2018-03-31T05:08:09.734Z,22.87
2018-03-31T05:10:38.034Z,24.20
2018-03-31T05:13:05.549Z,23.23
2018-03-31T05:15:33.077Z,25.63
2018-03-31T05:18:00.608Z,22.43
2018-03-31T05:20:28.164Z,24.00
2018-03-31T05:22:55.703Z,25.27
2018-03-31T05:25:23.180Z,21.20
2018-03-31T05:27:51.079Z,21.47
2018-03-31T05:30:18.566Z,20.03
2018-03-31T05:32:46.222Z,20.90
2018-03-31T05:35:13.764Z,26.23
2018-03-31T05:37:41.264Z,25.10
2018-03-31T05:40:08.792Z,30.00
2018-03-31T05:42:36.304Z,29.77
2018-03-31T05:45:04.604Z,36.13
2018-03-31T05:47:32.507Z,41.07
2018-03-31T05:49:59.980Z,37.73
2018-03-31T05:52:27.495Z,36.23
2018-03-31T05:54:55.028Z,33.10
2018-03-31T05:57:22.538Z,38.77
2018-03-31T05:59:50.119Z,29.00
2018-03-31T06:02:17.658Z,30.43
2018-03-31T06:04:45.183Z,31.17
2018-03-31T06:07:12.721Z,38.23
2018-03-31T06:09:40.199Z,31.20
2018-03-31T06:12:07.758Z,29.23
2018-03-31T06:14:35.303Z,27.60
2018-03-31T06:17:03.572Z,30.13
2018-03-31T06:19:31.903Z,29.40
2018-03-31T06:21:59.402Z,26.10
2018-03-31T06:24:26.944Z,35.23
2018-03-31T06:26:54.438Z,26.80
2018-03-31T06:29:22.737Z,25.33
2018-03-31T06:31:50.295Z,26.60
2018-03-31T06:34:17.950Z,25.63
2018-03-31T06:36:46.234Z,33.10
2018-03-31T06:39:15.351Z,23.90
2018-03-31T06:41:44.468Z,21.00
2018-03-31T06:44:12.207Z,22.93
2018-03-31T06:46:40.493Z,25.37
2018-03-31T06:49:08.745Z,22.23
2018-03-31T06:51:36.614Z,26.37
2018-03-31T06:54:05.231Z,18.70
2018-03-31T06:56:32.967Z,25.17
2018-03-31T06:59:01.690Z,24.90
2018-03-31T07:01:29.248Z,20.17
2018-03-31T07:03:56.759Z,25.57
2018-03-31T07:06:25.095Z,21.67
2018-03-31T07:08:52.618Z,23.07
2018-03-31T07:11:20.153Z,29.77
2018-03-31T07:13:47.699Z,25.00
2018-03-31T07:16:15.227Z,22.53
2018-03-31T07:18:42.746Z,23.70
2018-03-31T07:21:10.267Z,22.87
2018-03-31T07:23:37.819Z,19.03
2018-03-31T07:26:07.943Z,24.90
2018-03-31T07:28:35.416Z,25.53
2018-03-31T07:31:02.927Z,23.23
2018-03-31T07:33:30.449Z,22.83
2018-03-31T07:35:58.743Z,25.10
2018-03-31T07:38:27.024Z,24.57
2018-03-31T07:40:54.623Z,29.93
2018-03-31T07:43:22.130Z,25.20
2018-03-31T07:45:50.416Z,24.73
2018-03-31T07:48:18.687Z,27.87
2018-03-31T07:50:46.968Z,26.77
2018-03-31T07:53:15.264Z,23.80
2018-03-31T07:55:43.565Z,26.17
2018-03-31T07:58:11.080Z,26.93
2018-03-31T08:00:39.351Z,22.93
2018-03-31T08:03:07.667Z,27.53
2018-03-31T08:05:35.204Z,25.80
2018-03-31T08:08:02.763Z,24.93
2018-03-31T08:10:31.389Z,24.73
2018-03-31T08:12:58.868Z,24.10
2018-03-31T08:15:26.416Z,19.87
2018-03-31T08:17:53.922Z,25.70
2018-03-31T08:20:22.227Z,20.83
2018-03-31T08:22:49.767Z,24.40
2018-03-31T08:25:18.072Z,28.03
2018-03-31T08:27:45.592Z,31.03
2018-03-31T08:30:13.099Z,25.83
2018-03-31T08:32:40.599Z,25.33
2018-03-31T08:35:08.145Z,28.00
2018-03-31T08:37:35.878Z,22.20
2018-03-31T08:40:04.175Z,20.00
2018-03-31T08:42:31.703Z,19.27
2018-03-31T08:44:59.250Z,22.87
2018-03-31T08:47:26.815Z,24.00
2018-03-31T08:49:55.142Z,21.30
2018-03-31T08:52:22.655Z,21.50
2018-03-31T08:54:50.176Z,18.77
2018-03-31T08:57:17.714Z,19.50
2018-03-31T08:59:45.236Z,17.37
2018-03-31T09:02:12.753Z,18.30
2018-03-31T09:04:41.101Z,23.93
2018-03-31T09:07:08.643Z,19.23
2018-03-31T09:09:36.189Z,20.33
2018-03-31T09:12:04.466Z,20.20
2018-03-31T09:14:32.778Z,14.80
2018-03-31T09:17:00.336Z,16.93
2018-03-31T09:19:27.889Z,13.77
2018-03-31T09:21:56.182Z,11.23
2018-03-31T09:24:23.702Z,11.03
2018-03-31T09:26:51.958Z,15.17
2018-03-31T09:29:20.276Z,9.83
2018-03-31T09:31:47.769Z,12.00
2018-03-31T09:34:15.311Z,18.47
2018-03-31T09:36:43.007Z,12.50
2018-03-31T09:39:10.889Z,9.60
2018-03-31T09:41:38.384Z,8.40
2018-03-31T09:44:05.912Z,11.70
2018-03-31T09:46:34.235Z,14.97
2018-03-31T09:49:01.964Z,19.50
2018-03-31T09:51:30.381Z,8.53
2018-03-31T09:53:57.930Z,7.60
2018-03-31T09:56:25.499Z,12.67
2018-03-31T09:58:53.790Z,13.57
2018-03-31T10:01:21.454Z,17.33
2018-03-31T10:03:48.971Z,13.67
2018-03-31T10:06:17.281Z,11.80
2018-03-31T10:08:44.918Z,7.53
2018-03-31T10:11:12.458Z,10.00
2018-03-31T10:13:40.006Z,8.83
2018-03-31T10:16:08.440Z,9.70
2018-03-31T10:18:36.635Z,10.50
2018-03-31T10:21:04.145Z,14.20
2018-03-31T10:23:32.447Z,6.70
2018-03-31T10:26:00.370Z,5.43
2018-03-31T10:28:27.906Z,8.00
2018-03-31T10:30:55.538Z,5.70
2018-03-31T10:33:23.592Z,7.77
2018-03-31T10:35:51.955Z,6.83
2018-03-31T10:38:19.458Z,6.73
2018-03-31T10:40:47.017Z,8.83
2018-03-31T10:43:14.557Z,7.80
2018-03-31T10:45:42.161Z,9.47
2018-03-31T10:48:09.719Z,7.20
2018-03-31T10:50:37.298Z,7.97
2018-03-31T10:53:04.954Z,6.07
2018-03-31T10:55:32.482Z,8.37
2018-03-31T10:58:00.795Z,7.80
2018-03-31T11:00:29.402Z,6.30
2018-03-31T11:02:57.251Z,8.00
2018-03-31T11:05:24.865Z,6.70
2018-03-31T11:07:53.143Z,5.33
2018-03-31T11:10:21.448Z,5.33
2018-03-31T11:12:49.005Z,6.17
2018-03-31T11:15:16.543Z,6.93
2018-03-31T11:17:44.054Z,6.67
2018-03-31T11:20:11.609Z,4.67
2018-03-31T11:22:39.119Z,6.70
2018-03-31T11:25:07.394Z,4.83
2018-03-31T11:27:34.938Z,8.27
2018-03-31T11:30:02.464Z,6.30
2018-03-31T11:32:29.985Z,5.20
2018-03-31T11:34:58.289Z,5.07
2018-03-31T11:37:25.808Z,4.00
2018-03-31T11:39:54.093Z,5.60
2018-03-31T11:42:24.012Z,3.40
2018-03-31T11:44:53.202Z,3.53
2018-03-31T11:47:21.500Z,4.00
2018-03-31T11:49:49.292Z,4.10
2018-03-31T11:52:16.825Z,6.20
2018-03-31T11:54:44.614Z,6.73
2018-03-31T11:57:12.170Z,5.87
2018-03-31T11:59:39.669Z,3.57
2018-03-31T12:02:07.230Z,5.07
2018-03-31T12:04:34.754Z,5.03
2018-03-31T12:07:02.270Z,5.67
2018-03-31T12:09:30.899Z,3.43
2018-03-31T12:12:00.467Z,3.27
2018-03-31T12:14:30.135Z,5.10
2018-03-31T12:16:57.664Z,6.73
2018-03-31T12:19:26.022Z,3.83
2018-03-31T12:21:54.449Z,4.73
2018-03-31T12:24:22.054Z,5.80
2018-03-31T12:26:50.716Z,5.70
2018-03-31T12:29:18.663Z,5.57
2018-03-31T12:31:47.018Z,5.10
2018-03-31T12:34:14.549Z,4.13
2018-03-31T12:36:42.882Z,5.50
2018-03-31T12:39:10.378Z,5.20
2018-03-31T12:41:37.918Z,5.80
2018-03-31T12:44:07.050Z,5.20
2018-03-31T12:46:36.093Z,10.27
2018-03-31T12:49:05.106Z,9.50
2018-03-31T12:51:34.140Z,8.50
2018-03-31T12:54:03.199Z,8.10
2018-03-31T12:56:33.145Z,6.10
2018-03-31T12:59:02.199Z,7.43
2018-03-31T13:01:31.328Z,6.83
2018-03-31T13:04:00.396Z,10.37
2018-03-31T13:06:29.419Z,8.00
2018-03-31T13:08:59.456Z,9.63
2018-03-31T13:11:28.551Z,7.33
2018-03-31T13:13:58.382Z,8.40
2018-03-31T13:16:27.408Z,8.57
2018-03-31T13:18:57.460Z,8.20
2018-03-31T13:21:26.487Z,8.23
2018-03-31T13:23:55.527Z,8.43
2018-03-31T13:26:24.714Z,7.00
2018-03-31T13:28:53.742Z,8.13
2018-03-31T13:31:23.591Z,21.40
2018-03-31T13:33:52.648Z,9.10
2018-03-31T13:36:22.517Z,6.40
2018-03-31T13:38:51.628Z,8.10
2018-03-31T13:41:20.739Z,8.97
2018-03-31T13:43:49.746Z,10.17
2018-03-31T13:46:18.820Z,8.10
2018-03-31T13:48:47.825Z,6.93
2018-03-31T13:51:17.689Z,9.03
2018-03-31T13:53:46.734Z,7.20
2018-03-31T13:56:16.146Z,6.47
2018-03-31T13:58:45.200Z,6.53
2018-03-31T14:01:14.260Z,6.53
2018-03-31T14:03:43.348Z,10.50
2018-03-31T14:06:12.366Z,8.67
2018-03-31T14:08:42.767Z,13.57
2018-03-31T14:11:12.448Z,7.40
2018-03-31T14:13:41.538Z,10.17
2018-03-31T14:16:11.544Z,8.87
2018-03-31T14:18:40.615Z,6.30
2018-03-31T14:21:09.664Z,8.40
2018-03-31T14:23:38.694Z,6.63
2018-03-31T14:26:08.150Z,6.90
2018-03-31T14:28:37.260Z,8.67
2018-03-31T14:31:06.969Z,9.60
2018-03-31T14:33:36.047Z,10.53
2018-03-31T14:36:06.366Z,9.33
2018-03-31T14:38:35.390Z,9.03
2018-03-31T14:41:05.354Z,7.13
2018-03-31T14:43:35.753Z,9.47
2018-03-31T14:46:05.746Z,7.07
2018-03-31T14:48:34.781Z,7.77
2018-03-31T14:51:03.953Z,6.90
2018-03-31T14:53:33.005Z,9.43
2018-03-31T14:56:02.840Z,9.77
2018-03-31T14:58:31.882Z,9.40
2018-03-31T15:01:00.932Z,8.80
2018-03-31T15:03:29.977Z,6.63
2018-03-31T15:05:59.934Z,10.90
2018-03-31T15:08:29.840Z,5.47
2018-03-31T15:10:59.698Z,7.60
2018-03-31T15:13:28.744Z,5.93
2018-03-31T15:15:58.598Z,5.97
2018-03-31T15:18:27.706Z,11.17
2018-03-31T15:20:56.825Z,13.50
2018-03-31T15:23:25.873Z,8.80
2018-03-31T15:25:54.928Z,10.20
2018-03-31T15:28:24.734Z,8.33
2018-03-31T15:30:53.856Z,8.40
2018-03-31T15:33:23.291Z,12.03
2018-03-31T15:35:53.265Z,6.63
2018-03-31T15:38:23.446Z,7.90
2018-03-31T15:40:52.980Z,9.37
2018-03-31T15:43:21.996Z,7.50
2018-03-31T15:45:51.058Z,8.97
2018-03-31T15:48:20.137Z,7.73
2018-03-31T15:50:49.251Z,12.33
2018-03-31T15:53:18.302Z,6.90
2018-03-31T15:55:47.928Z,6.57
2018-03-31T15:58:16.965Z,6.20
2018-03-31T16:00:46.617Z,7.00
2018-03-31T16:03:15.760Z,13.73
2018-03-31T16:05:44.755Z,5.30
2018-03-31T16:08:14.876Z,5.00
2018-03-31T16:10:43.918Z,9.53
2018-03-31T16:13:12.969Z,5.87
2018-03-31T16:15:42.341Z,7.97
2018-03-31T16:18:11.968Z,9.00
2018-03-31T16:20:41.043Z,7.63
2018-03-31T16:23:10.949Z,8.50
2018-03-31T16:25:40.232Z,14.40
2018-03-31T16:28:11.074Z,13.60
2018-03-31T16:30:40.839Z,7.27
2018-03-31T16:33:10.239Z,8.23
2018-03-31T16:35:39.315Z,7.20
2018-03-31T16:38:09.262Z,7.50
2018-03-31T16:40:39.258Z,7.87
2018-03-31T16:43:08.302Z,10.43
2018-03-31T16:45:38.101Z,11.40
2018-03-31T16:48:07.176Z,10.60
2018-03-31T16:50:36.196Z,10.83
2018-03-31T16:53:05.963Z,11.27
2018-03-31T16:55:35.057Z,8.40
2018-03-31T16:58:04.200Z,8.27
2018-03-31T17:00:34.063Z,13.73
2018-03-31T17:03:03.149Z,10.63
2018-03-31T17:05:32.979Z,6.63
2018-03-31T17:08:02.483Z,10.80
2018-03-31T17:10:31.522Z,7.47
2018-03-31T17:13:00.587Z,10.23
2018-03-31T17:15:30.159Z,8.23
2018-03-31T17:17:58.603Z,9.10
2018-03-31T17:20:26.148Z,11.00
2018-03-31T17:22:53.759Z,13.50
2018-03-31T17:25:21.274Z,8.43
2018-03-31T17:27:49.149Z,9.80
2018-03-31T17:30:17.691Z,10.20
2018-03-31T17:32:45.223Z,12.40
2018-03-31T17:35:14.401Z,7.93
2018-03-31T17:37:41.949Z,10.00
2018-03-31T17:40:10.538Z,13.07
2018-03-31T17:42:38.059Z,8.60
2018-03-31T17:45:06.444Z,11.90
2018-03-31T17:47:34.017Z,7.53
2018-03-31T17:50:01.749Z,6.90
2018-03-31T17:52:30.021Z,6.93
2018-03-31T17:54:58.949Z,7.90
2018-03-31T17:57:27.411Z,11.73
2018-03-31T17:59:54.938Z,9.90
2018-03-31T18:02:25.224Z,19.23
2018-03-31T18:04:53.580Z,13.23
2018-03-31T18:07:21.724Z,25.43
2018-03-31T18:09:49.254Z,8.87
2018-03-31T18:12:16.855Z,17.10
2018-03-31T18:14:45.463Z,13.00
2018-03-31T18:17:13.001Z,16.63
2018-03-31T18:19:41.901Z,12.67
2018-03-31T18:22:10.344Z,12.20
2018-03-31T18:24:38.386Z,13.20
2018-03-31T18:27:05.946Z,11.50
2018-03-31T18:29:34.174Z,13.60
2018-03-31T18:32:02.494Z,18.80
2018-03-31T18:34:31.697Z,22.23
2018-03-31T18:37:00.254Z,16.67
2018-03-31T18:39:27.796Z,12.63
2018-03-31T18:41:56.214Z,11.77
2018-03-31T18:44:24.119Z,17.90
2018-03-31T18:46:51.666Z,12.53
2018-03-31T18:49:19.289Z,12.25
2018-03-31T18:51:46.972Z,12.83
2018-03-31T18:54:14.493Z,12.30
2018-03-31T18:56:43.339Z,14.97
2018-03-31T18:59:11.390Z,8.77
2018-03-31T19:01:40.056Z,10.63
2018-03-31T19:04:07.628Z,11.40
2018-03-31T19:06:35.247Z,18.80
2018-03-31T19:09:03.564Z,10.10
2018-03-31T19:11:31.447Z,10.60
2018-03-31T19:13:58.981Z,13.27
2018-03-31T19:16:32.063Z,12.10
2018-03-31T19:19:00.524Z,13.03
2018-03-31T19:21:30.392Z,15.07
2018-03-31T19:23:58.265Z,11.10
2018-03-31T19:26:26.136Z,14.50
2018-03-31T19:28:53.723Z,14.00
2018-03-31T19:31:22.499Z,12.57
2018-03-31T19:33:50.708Z,12.60
2018-03-31T19:36:19.055Z,27.80
2018-03-31T19:38:46.904Z,19.00
2018-03-31T19:41:16.101Z,16.30
2018-03-31T19:43:44.773Z,11.50
2018-03-31T19:46:13.215Z,18.00
2018-03-31T19:48:40.763Z,11.50
2018-03-31T19:51:08.326Z,10.80
2018-03-31T19:53:35.909Z,11.70
2018-03-31T19:56:04.644Z,14.17
2018-03-31T19:58:32.212Z,14.90
2018-03-31T20:00:59.915Z,13.40
2018-03-31T20:03:27.613Z,14.10
2018-03-31T20:05:56.539Z,16.30
2018-03-31T20:08:25.107Z,14.50
2018-03-31T20:10:52.947Z,16.20
2018-03-31T20:13:21.277Z,12.93
2018-03-31T20:15:48.998Z,16.87
2018-03-31T20:18:17.718Z,17.53
2018-03-31T20:20:45.229Z,40.73
2018-03-31T20:23:13.607Z,19.57
2018-03-31T20:25:42.268Z,19.40
2018-03-31T20:28:09.807Z,16.20
2018-03-31T20:30:37.360Z,17.17
2018-03-31T20:33:04.934Z,23.07
2018-03-31T20:35:33.292Z,23.73
2018-03-31T20:38:01.537Z,35.00
2018-03-31T20:40:29.124Z,20.47
2018-03-31T20:42:56.689Z,34.93
2018-03-31T20:45:24.559Z,18.33
2018-03-31T20:47:52.151Z,16.13
2018-03-31T20:50:19.691Z,16.07
2018-03-31T20:52:47.234Z,13.90
2018-03-31T20:55:14.782Z,15.90
2018-03-31T20:57:42.463Z,17.73
2018-03-31T21:00:10.003Z,14.83
2018-03-31T21:02:37.896Z,17.10
2018-03-31T21:05:05.752Z,14.30
2018-03-31T21:07:33.732Z,17.93
2018-03-31T21:10:01.243Z,18.10
2018-03-31T21:12:31.034Z,17.43
2018-03-31T21:14:58.561Z,23.33
2018-03-31T21:17:27.030Z,19.03
2018-03-31T21:19:54.564Z,17.23
2018-03-31T21:22:22.906Z,18.70
2018-03-31T21:24:50.867Z,22.40
2018-03-31T21:27:18.378Z,17.77
2018-03-31T21:29:47.136Z,22.60
2018-03-31T21:32:14.648Z,29.07
2018-03-31T21:34:43.366Z,36.33
2018-03-31T21:37:10.948Z,29.50
2018-03-31T21:39:38.521Z,28.03
2018-03-31T21:42:07.218Z,27.10
2018-03-31T21:44:35.527Z,38.70
2018-03-31T21:47:03.562Z,39.33
2018-03-31T21:49:31.958Z,34.60
2018-03-31T21:51:59.869Z,32.53
2018-03-31T21:54:27.443Z,23.73
2018-03-31T21:56:55.007Z,25.63
2018-03-31T21:59:23.883Z,28.30
2018-03-31T22:01:51.431Z,29.97
2018-03-31T22:04:19.770Z,35.97
2018-03-31T22:06:48.095Z,27.03
2018-03-31T22:09:15.645Z,29.50
2018-03-31T22:11:43.194Z,27.47
2018-03-31T22:14:18.253Z,30.23
2018-03-31T22:16:45.812Z,29.83
2018-03-31T22:19:15.126Z,31.50
2018-03-31T22:21:42.638Z,41.13
2018-03-31T22:24:11.361Z,38.80
2018-03-31T22:26:41.092Z,41.87
2018-03-31T22:29:08.722Z,39.17
2018-03-31T22:31:36.300Z,45.73
2018-03-31T22:34:03.840Z,45.00
2018-03-31T22:36:31.377Z,41.30
2018-03-31T22:38:59.671Z,39.57
2018-03-31T22:41:27.206Z,46.80
2018-03-31T22:43:54.796Z,43.63
2018-03-31T22:46:23.036Z,59.07
2018-03-31T22:48:50.557Z,50.07
2018-03-31T22:51:18.082Z,54.40
2018-03-31T22:53:45.649Z,49.30
2018-03-31T22:56:15.077Z,58.10
2018-03-31T22:58:49.878Z,61.67
2018-03-31T23:01:19.074Z,73.83
2018-03-31T23:03:46.846Z,69.67
2018-03-31T23:06:14.612Z,74.37
2018-03-31T23:08:42.819Z,78.30
2018-03-31T23:11:10.601Z,75.83
2018-03-31T23:13:39.143Z,80.77
2018-03-31T23:16:06.912Z,84.70
2018-03-31T23:18:34.682Z,83.53
2018-03-31T23:21:03.280Z,82.17
2018-03-31T23:23:31.032Z,85.13
2018-03-31T23:25:58.797Z,92.13
2018-03-31T23:28:26.554Z,105.43
2018-03-31T23:30:54.318Z,96.87
2018-03-31T23:33:22.120Z,99.70
2018-03-31T23:35:49.918Z,116.43
2018-03-31T23:38:18.172Z,126.87
2018-03-31T23:40:45.712Z,127.73
2018-03-31T23:43:13.224Z,131.33
2018-03-31T23:45:41.790Z,145.30
2018-03-31T23:48:09.312Z,127.03
2018-03-31T23:50:37.636Z,120.40
2018-03-31T23:53:05.127Z,124.60
2018-03-31T23:55:33.237Z,140.20
2018-03-31T23:58:01.293Z,137.73
